sensor_id;sensor_type;location;lat;lon;timestamp;pressure;altitude;pressure_sealevel;temperature;humidity
75945;BME280;64628;50.104;14.614;2022-12-04T00:02:15;98824.29;;;5.09;54.44
75945;BME280;64628;50.104;14.614;2022-12-04T00:04:40;98828.03;;;5.06;54.45
75945;BME280;64628;50.104;14.614;2022-12-04T00:07:06;98827.13;;;5.04;54.47
75945;BME280;64628;50.104;14.614;2022-12-04T00:09:31;98824.09;;;4.90;54.84
75945;BME280;64628;50.104;14.614;2022-12-04T00:11:56;98821.16;;;5.01;54.65
75945;BME280;64628;50.104;14.614;2022-12-04T00:14:22;98820.47;;;4.97;54.72
75945;BME280;64628;50.104;14.614;2022-12-04T00:16:48;98821.58;;;5.08;54.96
75945;BME280;64628;50.104;14.614;2022-12-04T00:19:14;98821.79;;;4.87;54.97
75945;BME280;64628;50.104;14.614;2022-12-04T00:21:39;98820.87;;;4.94;54.89
75945;BME280;64628;50.104;14.614;2022-12-04T00:24:05;98823.15;;;4.97;54.87
75945;BME280;64628;50.104;14.614;2022-12-04T00:26:30;98822.29;;;5.34;54.59
75945;BME280;64628;50.104;14.614;2022-12-04T00:28:56;98822.40;;;5.02;54.77
75945;BME280;64628;50.104;14.614;2022-12-04T00:31:23;98817.42;;;5.09;54.63
75945;BME280;64628;50.104;14.614;2022-12-04T00:33:47;98816.32;;;5.10;54.63
75945;BME280;64628;50.104;14.614;2022-12-04T00:36:14;98815.13;;;5.22;54.50
75945;BME280;64628;50.104;14.614;2022-12-04T00:38:39;98812.54;;;5.25;54.39
75945;BME280;64628;50.104;14.614;2022-12-04T00:41:03;98810.19;;;5.55;54.28
75945;BME280;64628;50.104;14.614;2022-12-04T00:43:30;98808.40;;;5.28;54.37
75945;BME280;64628;50.104;14.614;2022-12-04T00:45:54;98810.84;;;5.25;54.22
75945;BME280;64628;50.104;14.614;2022-12-04T00:48:20;98814.85;;;5.20;54.46
75945;BME280;64628;50.104;14.614;2022-12-04T00:50:45;98809.55;;;5.26;54.37
75945;BME280;64628;50.104;14.614;2022-12-04T00:53:11;98804.10;;;5.25;54.39
75945;BME280;64628;50.104;14.614;2022-12-04T00:55:37;98802.14;;;5.19;54.56
75945;BME280;64628;50.104;14.614;2022-12-04T00:58:01;98801.09;;;5.31;54.27
75945;BME280;64628;50.104;14.614;2022-12-04T01:00:27;98799.34;;;5.28;54.49
75945;BME280;64628;50.104;14.614;2022-12-04T01:02:52;98798.32;;;5.05;54.44
75945;BME280;64628;50.104;14.614;2022-12-04T01:05:17;98798.27;;;5.29;54.44
75945;BME280;64628;50.104;14.614;2022-12-04T01:07:43;98797.66;;;5.34;54.42
75945;BME280;64628;50.104;14.614;2022-12-04T01:10:11;98793.81;;;5.41;54.26
75945;BME280;64628;50.104;14.614;2022-12-04T01:12:34;98793.12;;;5.39;54.33
75945;BME280;64628;50.104;14.614;2022-12-04T01:14:59;98794.90;;;5.32;54.43
75945;BME280;64628;50.104;14.614;2022-12-04T01:17:24;98794.30;;;5.24;54.58
75945;BME280;64628;50.104;14.614;2022-12-04T01:19:49;98793.34;;;5.38;54.44
75945;BME280;64628;50.104;14.614;2022-12-04T01:22:15;98790.50;;;5.36;54.44
75945;BME280;64628;50.104;14.614;2022-12-04T01:24:40;98788.09;;;5.22;54.68
75945;BME280;64628;50.104;14.614;2022-12-04T01:27:06;98785.79;;;5.35;54.55
75945;BME280;64628;50.104;14.614;2022-12-04T01:29:31;98783.46;;;5.37;54.45
75945;BME280;64628;50.104;14.614;2022-12-04T01:31:56;98777.39;;;5.30;54.65
75945;BME280;64628;50.104;14.614;2022-12-04T01:34:22;98773.61;;;5.52;54.63
75945;BME280;64628;50.104;14.614;2022-12-04T01:36:47;98775.31;;;5.34;54.59
75945;BME280;64628;50.104;14.614;2022-12-04T01:39:12;98774.27;;;5.27;54.71
75945;BME280;64628;50.104;14.614;2022-12-04T01:41:38;98771.61;;;5.28;54.73
75945;BME280;64628;50.104;14.614;2022-12-04T01:44:12;98770.76;;;5.35;54.69
75945;BME280;64628;50.104;14.614;2022-12-04T01:46:29;98766.50;;;5.27;54.83
75945;BME280;64628;50.104;14.614;2022-12-04T01:48:54;98769.31;;;5.42;54.63
75945;BME280;64628;50.104;14.614;2022-12-04T01:51:23;98769.44;;;5.19;54.68
75945;BME280;64628;50.104;14.614;2022-12-04T01:53:49;98768.15;;;5.44;54.66
75945;BME280;64628;50.104;14.614;2022-12-04T01:56:11;98765.04;;;5.55;54.40
75945;BME280;64628;50.104;14.614;2022-12-04T01:58:39;98764.33;;;5.51;54.48
75945;BME280;64628;50.104;14.614;2022-12-04T02:01:05;98766.32;;;5.60;54.35
75945;BME280;64628;50.104;14.614;2022-12-04T02:03:28;98767.82;;;5.55;54.42
75945;BME280;64628;50.104;14.614;2022-12-04T02:05:53;98763.73;;;5.55;54.47
75945;BME280;64628;50.104;14.614;2022-12-04T02:08:19;98760.68;;;5.36;54.43
75945;BME280;64628;50.104;14.614;2022-12-04T02:10:50;98761.40;;;5.61;54.35
75945;BME280;64628;50.104;14.614;2022-12-04T02:13:15;98766.12;;;5.23;54.59
75945;BME280;64628;50.104;14.614;2022-12-04T02:15:40;98766.96;;;5.52;54.70
75945;BME280;64628;50.104;14.614;2022-12-04T02:18:05;98764.07;;;5.49;54.78
75945;BME280;64628;50.104;14.614;2022-12-04T02:20:32;98760.16;;;5.58;54.63
75945;BME280;64628;50.104;14.614;2022-12-04T02:23:12;98759.84;;;5.33;54.65
75945;BME280;64628;50.104;14.614;2022-12-04T02:25:23;98759.80;;;5.57;54.69
75945;BME280;64628;50.104;14.614;2022-12-04T02:27:52;98756.52;;;5.63;54.56
75945;BME280;64628;50.104;14.614;2022-12-04T02:30:10;98746.62;;;5.47;54.54
75945;BME280;64628;50.104;14.614;2022-12-04T02:32:39;98741.91;;;5.74;54.48
75945;BME280;64628;50.104;14.614;2022-12-04T02:35:02;98743.74;;;5.79;54.40
75945;BME280;64628;50.104;14.614;2022-12-04T02:37:30;98746.44;;;5.81;54.38
75945;BME280;64628;50.104;14.614;2022-12-04T02:39:53;98747.17;;;5.85;54.31
75945;BME280;64628;50.104;14.614;2022-12-04T02:42:19;98750.18;;;5.39;54.64
75945;BME280;64628;50.104;14.614;2022-12-04T02:44:43;98749.88;;;5.74;54.65
75945;BME280;64628;50.104;14.614;2022-12-04T02:47:11;98751.73;;;5.80;54.57
75945;BME280;64628;50.104;14.614;2022-12-04T02:49:34;98749.92;;;5.65;54.50
75945;BME280;64628;50.104;14.614;2022-12-04T02:51:58;98743.62;;;5.94;54.43
75945;BME280;64628;50.104;14.614;2022-12-04T02:54:26;98741.85;;;5.89;54.49
75945;BME280;64628;50.104;14.614;2022-12-04T02:56:49;98747.50;;;5.61;54.61
75945;BME280;64628;50.104;14.614;2022-12-04T02:59:16;98751.47;;;5.85;54.69
75945;BME280;64628;50.104;14.614;2022-12-04T03:01:41;98748.16;;;5.93;54.59
75945;BME280;64628;50.104;14.614;2022-12-04T03:04:09;98747.86;;;5.98;54.40
75945;BME280;64628;50.104;14.614;2022-12-04T03:06:33;98743.11;;;6.04;54.40
75945;BME280;64628;50.104;14.614;2022-12-04T03:09:02;98742.67;;;5.61;54.29
75945;BME280;64628;50.104;14.614;2022-12-04T03:11:21;98743.90;;;6.08;54.31
75945;BME280;64628;50.104;14.614;2022-12-04T03:13:50;98744.70;;;5.91;54.19
75945;BME280;64628;50.104;14.614;2022-12-04T03:16:14;98746.13;;;5.75;54.09
75945;BME280;64628;50.104;14.614;2022-12-04T03:18:41;98747.73;;;5.99;54.10
75945;BME280;64628;50.104;14.614;2022-12-04T03:21:06;98748.81;;;5.97;54.10
75945;BME280;64628;50.104;14.614;2022-12-04T03:23:31;98750.12;;;6.11;54.28
75945;BME280;64628;50.104;14.614;2022-12-04T03:26:00;98754.22;;;6.15;54.29
75945;BME280;64628;50.104;14.614;2022-12-04T03:28:24;98751.61;;;5.73;54.31
75945;BME280;64628;50.104;14.614;2022-12-04T03:30:50;98751.99;;;5.90;54.38
75945;BME280;64628;50.104;14.614;2022-12-04T03:33:13;98751.11;;;6.05;54.66
75945;BME280;64628;50.104;14.614;2022-12-04T03:35:41;98750.75;;;5.93;54.41
75945;BME280;64628;50.104;14.614;2022-12-04T03:38:04;98748.30;;;5.66;54.46
75945;BME280;64628;50.104;14.614;2022-12-04T03:40:31;98750.72;;;5.81;54.28
75945;BME280;64628;50.104;14.614;2022-12-04T03:42:57;98747.53;;;5.79;54.28
75945;BME280;64628;50.104;14.614;2022-12-04T03:45:22;98745.40;;;6.04;54.32
75945;BME280;64628;50.104;14.614;2022-12-04T03:47:46;98741.41;;;6.14;54.02
75945;BME280;64628;50.104;14.614;2022-12-04T03:50:12;98746.11;;;5.87;54.12
75945;BME280;64628;50.104;14.614;2022-12-04T03:52:44;98743.88;;;5.93;54.11
75945;BME280;64628;50.104;14.614;2022-12-04T03:55:03;98746.41;;;6.14;54.12
75945;BME280;64628;50.104;14.614;2022-12-04T03:57:27;98746.34;;;5.85;54.23
75945;BME280;64628;50.104;14.614;2022-12-04T03:59:54;98739.16;;;5.85;54.26
75945;BME280;64628;50.104;14.614;2022-12-04T04:02:18;98737.03;;;5.84;54.28
75945;BME280;64628;50.104;14.614;2022-12-04T04:04:42;98731.85;;;5.42;54.23
75945;BME280;64628;50.104;14.614;2022-12-04T04:07:11;98734.86;;;6.43;54.14
75945;BME280;64628;50.104;14.614;2022-12-04T04:09:35;98737.44;;;6.28;54.39
75945;BME280;64628;50.104;14.614;2022-12-04T04:12:01;98734.36;;;5.89;54.29
75945;BME280;64628;50.104;14.614;2022-12-04T04:14:24;98730.33;;;6.19;54.08
75945;BME280;64628;50.104;14.614;2022-12-04T04:16:52;98733.53;;;5.94;54.15
75945;BME280;64628;50.104;14.614;2022-12-04T04:19:15;98731.79;;;5.98;54.18
75945;BME280;64628;50.104;14.614;2022-12-04T04:21:42;98730.35;;;6.25;54.10
75945;BME280;64628;50.104;14.614;2022-12-04T04:24:04;98727.03;;;6.23;54.07
75945;BME280;64628;50.104;14.614;2022-12-04T04:26:33;98732.05;;;6.26;54.12
75945;BME280;64628;50.104;14.614;2022-12-04T04:28:55;98733.89;;;6.53;54.06
75945;BME280;64628;50.104;14.614;2022-12-04T04:31:25;98735.23;;;6.01;54.23
75945;BME280;64628;50.104;14.614;2022-12-04T04:33:51;98732.14;;;6.07;54.17
75945;BME280;64628;50.104;14.614;2022-12-04T04:36:15;98729.60;;;6.04;54.32
75945;BME280;64628;50.104;14.614;2022-12-04T04:38:39;98724.70;;;6.34;54.18
75945;BME280;64628;50.104;14.614;2022-12-04T04:41:07;98720.21;;;6.10;54.27
75945;BME280;64628;50.104;14.614;2022-12-04T04:43:32;98721.55;;;6.12;54.13
75945;BME280;64628;50.104;14.614;2022-12-04T04:45:56;98718.86;;;6.35;54.31
75945;BME280;64628;50.104;14.614;2022-12-04T04:48:22;98717.26;;;6.17;54.17
75945;BME280;64628;50.104;14.614;2022-12-04T04:50:44;98712.49;;;6.31;54.35
75945;BME280;64628;50.104;14.614;2022-12-04T04:53:12;98709.76;;;6.19;54.15
75945;BME280;64628;50.104;14.614;2022-12-04T04:55:34;98703.00;;;6.39;54.29
75945;BME280;64628;50.104;14.614;2022-12-04T04:58:05;98701.59;;;6.38;54.34
75945;BME280;64628;50.104;14.614;2022-12-04T05:00:24;98695.61;;;6.33;54.50
75945;BME280;64628;50.104;14.614;2022-12-04T05:02:49;98701.75;;;6.11;54.46
75945;BME280;64628;50.104;14.614;2022-12-04T05:05:15;98705.88;;;6.26;54.79
75945;BME280;64628;50.104;14.614;2022-12-04T05:07:40;98705.60;;;6.40;54.48
75945;BME280;64628;50.104;14.614;2022-12-04T05:10:06;98711.52;;;6.58;54.63
75945;BME280;64628;50.104;14.614;2022-12-04T05:12:30;98718.27;;;6.23;54.44
75945;BME280;64628;50.104;14.614;2022-12-04T05:14:55;98716.18;;;6.28;54.42
75945;BME280;64628;50.104;14.614;2022-12-04T05:17:21;98718.37;;;6.44;54.86
75945;BME280;64628;50.104;14.614;2022-12-04T05:19:46;98720.80;;;6.23;55.00
75945;BME280;64628;50.104;14.614;2022-12-04T05:22:12;98729.24;;;6.33;54.86
75945;BME280;64628;50.104;14.614;2022-12-04T05:24:37;98729.20;;;6.34;54.81
75945;BME280;64628;50.104;14.614;2022-12-04T05:27:03;98729.77;;;6.44;54.71
75945;BME280;64628;50.104;14.614;2022-12-04T05:29:28;98730.26;;;6.31;54.53
75945;BME280;64628;50.104;14.614;2022-12-04T05:31:53;98727.12;;;6.31;54.48
75945;BME280;64628;50.104;14.614;2022-12-04T05:34:18;98722.96;;;6.56;54.56
75945;BME280;64628;50.104;14.614;2022-12-04T05:36:44;98716.66;;;6.43;54.35
75945;BME280;64628;50.104;14.614;2022-12-04T05:39:09;98716.35;;;6.40;54.34
75945;BME280;64628;50.104;14.614;2022-12-04T05:41:35;98715.43;;;6.45;54.37
75945;BME280;64628;50.104;14.614;2022-12-04T05:44:01;98717.00;;;6.44;54.32
75945;BME280;64628;50.104;14.614;2022-12-04T05:46:26;98718.23;;;6.53;54.22
75945;BME280;64628;50.104;14.614;2022-12-04T05:48:52;98717.22;;;6.77;54.27
75945;BME280;64628;50.104;14.614;2022-12-04T05:51:17;98716.40;;;6.54;54.25
75945;BME280;64628;50.104;14.614;2022-12-04T05:53:43;98723.38;;;6.41;54.42
75945;BME280;64628;50.104;14.614;2022-12-04T05:56:09;98720.95;;;6.63;54.56
75945;BME280;64628;50.104;14.614;2022-12-04T05:58:34;98719.48;;;6.50;54.46
75945;BME280;64628;50.104;14.614;2022-12-04T06:00:59;98716.46;;;6.44;54.46
75945;BME280;64628;50.104;14.614;2022-12-04T06:03:25;98721.18;;;6.28;54.77
75945;BME280;64628;50.104;14.614;2022-12-04T06:05:50;98722.92;;;6.47;54.50
75945;BME280;64628;50.104;14.614;2022-12-04T06:08:15;98731.76;;;6.51;54.42
75945;BME280;64628;50.104;14.614;2022-12-04T06:10:41;98736.69;;;6.29;54.43
75945;BME280;64628;50.104;14.614;2022-12-04T06:13:07;98740.31;;;6.56;54.28
75945;BME280;64628;50.104;14.614;2022-12-04T06:15:36;98732.80;;;6.73;54.51
75945;BME280;64628;50.104;14.614;2022-12-04T06:17:58;98727.76;;;6.61;54.31
75945;BME280;64628;50.104;14.614;2022-12-04T06:20:23;98727.14;;;6.64;54.32
75945;BME280;64628;50.104;14.614;2022-12-04T06:22:48;98725.65;;;6.51;54.28
75945;BME280;64628;50.104;14.614;2022-12-04T06:25:14;98728.44;;;6.75;54.45
75945;BME280;64628;50.104;14.614;2022-12-04T06:27:40;98734.24;;;6.54;54.33
75945;BME280;64628;50.104;14.614;2022-12-04T06:30:07;98734.31;;;6.60;54.36
75945;BME280;64628;50.104;14.614;2022-12-04T06:32:31;98737.48;;;6.46;54.61
75945;BME280;64628;50.104;14.614;2022-12-04T06:34:56;98739.46;;;6.40;54.35
75945;BME280;64628;50.104;14.614;2022-12-04T06:37:23;98741.17;;;6.52;54.44
75945;BME280;64628;50.104;14.614;2022-12-04T06:39:48;98744.64;;;6.37;54.41
75945;BME280;64628;50.104;14.614;2022-12-04T06:42:13;98748.89;;;6.64;54.32
75945;BME280;64628;50.104;14.614;2022-12-04T06:44:39;98749.60;;;6.69;54.10
75945;BME280;64628;50.104;14.614;2022-12-04T06:47:05;98751.08;;;6.79;54.14
75945;BME280;64628;50.104;14.614;2022-12-04T06:49:30;98750.13;;;6.84;53.96
75945;BME280;64628;50.104;14.614;2022-12-04T06:51:56;98751.33;;;6.78;54.03
75945;BME280;64628;50.104;14.614;2022-12-04T06:54:20;98746.75;;;6.27;54.17
75945;BME280;64628;50.104;14.614;2022-12-04T06:56:47;98748.21;;;6.84;54.02
75945;BME280;64628;50.104;14.614;2022-12-04T06:59:12;98749.37;;;6.88;53.97
75945;BME280;64628;50.104;14.614;2022-12-04T07:01:38;98748.16;;;6.77;54.07
75945;BME280;64628;50.104;14.614;2022-12-04T07:04:04;98747.20;;;6.77;54.10
75945;BME280;64628;50.104;14.614;2022-12-04T07:06:31;98751.93;;;6.71;54.19
75945;BME280;64628;50.104;14.614;2022-12-04T07:08:57;98746.08;;;6.59;54.28
75945;BME280;64628;50.104;14.614;2022-12-04T07:11:21;98751.51;;;6.75;54.26
75945;BME280;64628;50.104;14.614;2022-12-04T07:13:46;98757.38;;;6.60;54.10
75945;BME280;64628;50.104;14.614;2022-12-04T07:16:13;98753.01;;;6.61;54.24
75945;BME280;64628;50.104;14.614;2022-12-04T07:18:37;98749.23;;;6.68;54.38
75945;BME280;64628;50.104;14.614;2022-12-04T07:21:05;98751.70;;;6.69;54.36
75945;BME280;64628;50.104;14.614;2022-12-04T07:23:28;98755.21;;;6.57;54.20
75945;BME280;64628;50.104;14.614;2022-12-04T07:25:53;98756.54;;;6.82;54.12
75945;BME280;64628;50.104;14.614;2022-12-04T07:28:18;98756.87;;;6.96;53.96
75945;BME280;64628;50.104;14.614;2022-12-04T07:30:44;98756.58;;;6.80;53.83
75945;BME280;64628;50.104;14.614;2022-12-04T07:33:10;98753.73;;;7.01;53.84
75945;BME280;64628;50.104;14.614;2022-12-04T07:35:35;98755.35;;;6.83;53.72
75945;BME280;64628;50.104;14.614;2022-12-04T07:38:00;98754.83;;;7.11;53.55
75945;BME280;64628;50.104;14.614;2022-12-04T07:40:26;98758.45;;;7.25;53.89
75945;BME280;64628;50.104;14.614;2022-12-04T07:42:50;98768.93;;;6.60;53.95
75945;BME280;64628;50.104;14.614;2022-12-04T07:45:16;98767.76;;;7.17;53.67
75945;BME280;64628;50.104;14.614;2022-12-04T07:47:42;98767.56;;;6.66;53.87
75945;BME280;64628;50.104;14.614;2022-12-04T07:50:07;98764.76;;;6.95;53.75
75945;BME280;64628;50.104;14.614;2022-12-04T07:52:35;98767.04;;;7.26;53.65
75945;BME280;64628;50.104;14.614;2022-12-04T07:54:58;98764.40;;;6.86;54.01
75945;BME280;64628;50.104;14.614;2022-12-04T07:57:23;98762.76;;;7.13;53.97
75945;BME280;64628;50.104;14.614;2022-12-04T07:59:48;98763.60;;;7.17;53.89
75945;BME280;64628;50.104;14.614;2022-12-04T08:02:14;98765.09;;;7.29;53.89
75945;BME280;64628;50.104;14.614;2022-12-04T08:04:39;98767.15;;;6.91;53.86
75945;BME280;64628;50.104;14.614;2022-12-04T08:07:05;98764.74;;;7.41;53.53
75945;BME280;64628;50.104;14.614;2022-12-04T08:09:30;98768.80;;;7.23;53.84
75945;BME280;64628;50.104;14.614;2022-12-04T08:11:56;98770.98;;;6.94;53.61
75945;BME280;64628;50.104;14.614;2022-12-04T08:14:21;98768.68;;;7.30;53.31
75945;BME280;64628;50.104;14.614;2022-12-04T08:16:48;98769.95;;;7.20;53.13
75945;BME280;64628;50.104;14.614;2022-12-04T08:19:12;98768.17;;;7.15;53.43
75945;BME280;64628;50.104;14.614;2022-12-04T08:21:37;98770.87;;;6.95;53.50
75945;BME280;64628;50.104;14.614;2022-12-04T08:24:04;98766.54;;;7.55;53.43
75945;BME280;64628;50.104;14.614;2022-12-04T08:26:30;98768.61;;;7.27;53.46
75945;BME280;64628;50.104;14.614;2022-12-04T08:28:55;98776.43;;;7.66;53.32
75945;BME280;64628;50.104;14.614;2022-12-04T08:31:21;98774.10;;;7.23;53.25
75945;BME280;64628;50.104;14.614;2022-12-04T08:33:46;98772.73;;;7.23;53.08
75945;BME280;64628;50.104;14.614;2022-12-04T08:36:12;98774.20;;;7.70;53.13
75945;BME280;64628;50.104;14.614;2022-12-04T08:38:36;98769.92;;;7.15;53.23
75945;BME280;64628;50.104;14.614;2022-12-04T08:41:02;98771.49;;;7.54;52.94
75945;BME280;64628;50.104;14.614;2022-12-04T08:43:26;98768.40;;;7.40;52.89
75945;BME280;64628;50.104;14.614;2022-12-04T08:45:55;98769.78;;;7.36;52.74
75945;BME280;64628;50.104;14.614;2022-12-04T08:48:27;98767.26;;;7.41;52.79
75945;BME280;64628;50.104;14.614;2022-12-04T08:55:35;98767.57;;;7.54;52.59
75945;BME280;64628;50.104;14.614;2022-12-04T09:00:26;98764.11;;;7.64;52.32
75945;BME280;64628;50.104;14.614;2022-12-04T09:03:02;98768.85;;;7.49;52.40
75945;BME280;64628;50.104;14.614;2022-12-04T09:05:31;98765.29;;;7.46;52.61
75945;BME280;64628;50.104;14.614;2022-12-04T09:10:16;98767.47;;;7.48;52.14
75945;BME280;64628;50.104;14.614;2022-12-04T09:12:31;98759.61;;;7.48;52.54
75945;BME280;64628;50.104;14.614;2022-12-04T09:14:56;98758.37;;;7.52;52.47
75945;BME280;64628;50.104;14.614;2022-12-04T09:17:22;98755.19;;;7.51;52.39
75945;BME280;64628;50.104;14.614;2022-12-04T09:19:48;98755.20;;;7.39;52.75
75945;BME280;64628;50.104;14.614;2022-12-04T09:22:14;98753.08;;;7.45;52.41
75945;BME280;64628;50.104;14.614;2022-12-04T09:24:45;98747.12;;;7.46;52.78
75945;BME280;64628;50.104;14.614;2022-12-04T09:27:03;98748.17;;;7.39;52.61
75945;BME280;64628;50.104;14.614;2022-12-04T09:29:36;98747.02;;;7.98;52.71
75945;BME280;64628;50.104;14.614;2022-12-04T09:32:01;98742.81;;;7.56;52.43
75945;BME280;64628;50.104;14.614;2022-12-04T09:37:10;98747.26;;;7.79;53.01
75945;BME280;64628;50.104;14.614;2022-12-04T09:39:16;98741.55;;;7.47;52.97
75945;BME280;64628;50.104;14.614;2022-12-04T09:49:00;98733.16;;;7.86;52.71
75945;BME280;64628;50.104;14.614;2022-12-04T09:51:24;98740.29;;;7.56;52.23
75945;BME280;64628;50.104;14.614;2022-12-04T09:53:49;98736.62;;;7.53;52.39
75945;BME280;64628;50.104;14.614;2022-12-04T09:56:19;98732.92;;;7.80;52.57
75945;BME280;64628;50.104;14.614;2022-12-04T10:01:01;98731.91;;;7.89;52.10
75945;BME280;64628;50.104;14.614;2022-12-04T10:03:43;98729.44;;;7.70;51.77
75945;BME280;64628;50.104;14.614;2022-12-04T10:08:18;98725.85;;;7.48;52.06
75945;BME280;64628;50.104;14.614;2022-12-04T10:10:43;98727.15;;;8.02;51.36
75945;BME280;64628;50.104;14.614;2022-12-04T10:13:18;98728.73;;;7.81;51.52
75945;BME280;64628;50.104;14.614;2022-12-04T10:15:37;98729.07;;;7.68;51.75
75945;BME280;64628;50.104;14.614;2022-12-04T10:18:09;98726.31;;;7.95;52.04
75945;BME280;64628;50.104;14.614;2022-12-04T10:20:41;98728.81;;;8.20;51.67
75945;BME280;64628;50.104;14.614;2022-12-04T10:22:56;98730.80;;;7.94;51.37
75945;BME280;64628;50.104;14.614;2022-12-04T10:25:16;98729.42;;;7.93;51.38
75945;BME280;64628;50.104;14.614;2022-12-04T10:27:41;98730.73;;;7.89;51.93
75945;BME280;64628;50.104;14.614;2022-12-04T10:30:13;98723.30;;;8.00;51.58
75945;BME280;64628;50.104;14.614;2022-12-04T10:32:31;98721.19;;;7.81;51.56
75945;BME280;64628;50.104;14.614;2022-12-04T10:34:57;98719.98;;;7.89;51.47
75945;BME280;64628;50.104;14.614;2022-12-04T10:37:20;98717.43;;;7.77;51.53
75945;BME280;64628;50.104;14.614;2022-12-04T10:39:50;98711.51;;;7.72;51.44
75945;BME280;64628;50.104;14.614;2022-12-04T10:44:46;98711.65;;;7.65;50.56
75945;BME280;64628;50.104;14.614;2022-12-04T10:47:03;98714.89;;;8.26;50.38
75945;BME280;64628;50.104;14.614;2022-12-04T10:49:42;98713.30;;;8.38;50.22
75945;BME280;64628;50.104;14.614;2022-12-04T10:52:08;98715.10;;;8.18;50.21
75945;BME280;64628;50.104;14.614;2022-12-04T10:54:32;98709.14;;;8.23;50.19
75945;BME280;64628;50.104;14.614;2022-12-04T10:56:56;98706.49;;;8.13;50.10
75945;BME280;64628;50.104;14.614;2022-12-04T10:59:23;98699.94;;;8.24;50.08
75945;BME280;64628;50.104;14.614;2022-12-04T11:06:36;98696.16;;;8.61;50.61
75945;BME280;64628;50.104;14.614;2022-12-04T11:09:01;98692.58;;;8.26;50.14
75945;BME280;64628;50.104;14.614;2022-12-04T11:11:26;98697.40;;;8.35;50.04
75945;BME280;64628;50.104;14.614;2022-12-04T11:13:42;98701.33;;;8.31;50.25
75945;BME280;64628;50.104;14.614;2022-12-04T11:20:58;98693.98;;;8.34;50.58
75945;BME280;64628;50.104;14.614;2022-12-04T11:23:23;98689.82;;;8.21;50.52
75945;BME280;64628;50.104;14.614;2022-12-04T11:25:51;98686.71;;;8.08;50.65
75945;BME280;64628;50.104;14.614;2022-12-04T11:28:20;98675.01;;;8.70;50.65
75945;BME280;64628;50.104;14.614;2022-12-04T11:30:48;98672.00;;;8.25;50.53
75945;BME280;64628;50.104;14.614;2022-12-04T11:33:15;98669.79;;;8.16;50.02
75945;BME280;64628;50.104;14.614;2022-12-04T11:35:35;98671.95;;;8.51;50.45
75945;BME280;64628;50.104;14.614;2022-12-04T11:37:57;98672.31;;;8.31;50.42
75945;BME280;64628;50.104;14.614;2022-12-04T11:40:21;98671.78;;;8.35;50.46
75945;BME280;64628;50.104;14.614;2022-12-04T11:42:57;98671.43;;;8.46;50.37
75945;BME280;64628;50.104;14.614;2022-12-04T11:47:37;98670.83;;;8.24;49.99
75945;BME280;64628;50.104;14.614;2022-12-04T11:50:11;98672.40;;;8.14;50.30
75945;BME280;64628;50.104;14.614;2022-12-04T11:52:43;98676.14;;;8.29;50.76
75945;BME280;64628;50.104;14.614;2022-12-04T11:55:01;98675.38;;;8.29;50.10
75945;BME280;64628;50.104;14.614;2022-12-04T11:57:23;98673.30;;;8.21;50.46
75945;BME280;64628;50.104;14.614;2022-12-04T12:02:29;98671.17;;;7.92;50.83
75945;BME280;64628;50.104;14.614;2022-12-04T12:09:44;98664.78;;;7.92;51.05
75945;BME280;64628;50.104;14.614;2022-12-04T12:12:01;98668.17;;;8.03;51.03
75945;BME280;64628;50.104;14.614;2022-12-04T12:21:41;98653.87;;;8.00;50.69
75945;BME280;64628;50.104;14.614;2022-12-04T12:24:14;98654.22;;;8.51;49.83
75945;BME280;64628;50.104;14.614;2022-12-04T12:26:31;98649.75;;;8.55;50.07
75945;BME280;64628;50.104;14.614;2022-12-04T12:29:03;98648.66;;;8.16;50.05
75945;BME280;64628;50.104;14.614;2022-12-04T12:36:07;98650.71;;;8.01;50.83
75945;BME280;64628;50.104;14.614;2022-12-04T12:38:37;98646.60;;;7.88;51.08
75945;BME280;64628;50.104;14.614;2022-12-04T12:43:28;98641.05;;;8.07;50.95
75945;BME280;64628;50.104;14.614;2022-12-04T12:46:01;98640.98;;;8.20;50.24
75945;BME280;64628;50.104;14.614;2022-12-04T12:50:47;98636.27;;;8.44;49.13
75945;BME280;64628;50.104;14.614;2022-12-04T12:53:10;98635.58;;;8.68;48.74
75945;BME280;64628;50.104;14.614;2022-12-04T12:55:40;98638.62;;;8.18;48.98
75945;BME280;64628;50.104;14.614;2022-12-04T12:57:59;98631.62;;;8.48;49.43
75945;BME280;64628;50.104;14.614;2022-12-04T13:00:21;98634.64;;;8.65;49.52
75945;BME280;64628;50.104;14.614;2022-12-04T13:02:48;98634.58;;;8.33;49.93
75945;BME280;64628;50.104;14.614;2022-12-04T13:05:13;98631.94;;;7.89;49.99
75945;BME280;64628;50.104;14.614;2022-12-04T13:07:44;98633.15;;;7.86;50.59
75945;BME280;64628;50.104;14.614;2022-12-04T13:10:05;98639.80;;;7.98;50.36
75945;BME280;64628;50.104;14.614;2022-12-04T13:12:28;98626.69;;;7.61;50.99
75945;BME280;64628;50.104;14.614;2022-12-04T13:14:53;98622.54;;;7.95;50.60
75945;BME280;64628;50.104;14.614;2022-12-04T13:17:23;98623.81;;;7.79;50.34
75945;BME280;64628;50.104;14.614;2022-12-04T13:19:47;98621.31;;;7.65;50.74
75945;BME280;64628;50.104;14.614;2022-12-04T13:22:15;98620.64;;;7.68;50.90
75945;BME280;64628;50.104;14.614;2022-12-04T13:24:52;98618.38;;;7.58;50.83
75945;BME280;64628;50.104;14.614;2022-12-04T13:27:04;98613.13;;;7.60;50.49
75945;BME280;64628;50.104;14.614;2022-12-04T13:31:54;98612.91;;;7.50;51.12
75945;BME280;64628;50.104;14.614;2022-12-04T13:34:34;98615.66;;;7.83;50.12
75945;BME280;64628;50.104;14.614;2022-12-04T13:39:21;98621.61;;;7.91;50.47
75945;BME280;64628;50.104;14.614;2022-12-04T13:41:33;98623.03;;;8.02;49.69
75945;BME280;64628;50.104;14.614;2022-12-04T13:43:58;98627.96;;;7.90;49.59
75945;BME280;64628;50.104;14.614;2022-12-04T13:46:30;98621.94;;;7.90;49.73
75945;BME280;64628;50.104;14.614;2022-12-04T13:51:36;98617.74;;;7.89;50.38
75945;BME280;64628;50.104;14.614;2022-12-04T13:53:43;98617.31;;;7.71;49.54
75945;BME280;64628;50.104;14.614;2022-12-04T14:01:07;98615.82;;;7.81;49.28
75945;BME280;64628;50.104;14.614;2022-12-04T14:06:01;98608.31;;;8.08;49.62
75945;BME280;64628;50.104;14.614;2022-12-04T14:08:22;98604.60;;;8.16;49.56